createdAt,value
2023-02-06T00:01:20.553Z,98.10
2023-02-06T00:03:47.353Z,97.50
2023-02-06T00:06:14.358Z,97.50
2023-02-06T00:08:41.420Z,97.70
2023-02-06T00:11:12.111Z,97.80
2023-02-06T00:13:39.039Z,97.70
2023-02-06T00:16:09.490Z,97.50
2023-02-06T00:18:36.215Z,98.10
2023-02-06T00:21:02.826Z,97.80
2023-02-06T00:23:29.504Z,97.80
2023-02-06T00:25:56.140Z,97.50
2023-02-06T00:28:22.769Z,97.30
2023-02-06T00:30:49.816Z,97.80
2023-02-06T00:33:16.538Z,97.60
2023-02-06T00:35:43.199Z,97.50
2023-02-06T00:38:13.101Z,97.40
2023-02-06T00:40:39.782Z,97.50
2023-02-06T00:43:06.587Z,97.40
2023-02-06T00:45:33.579Z,97.60
2023-02-06T00:48:02.044Z,97.70
2023-02-06T00:50:29.601Z,98.10
2023-02-06T00:52:56.273Z,98.10
2023-02-06T00:55:23.166Z,98.10
2023-02-06T00:57:49.812Z,97.70
2023-02-06T01:00:16.770Z,97.30
2023-02-06T01:02:43.548Z,97.60
2023-02-06T01:05:10.378Z,97.40
2023-02-06T01:07:39.550Z,97.00
2023-02-06T01:10:07.927Z,97.30
2023-02-06T01:12:36.057Z,97.20
2023-02-06T01:15:05.528Z,96.90
2023-02-06T01:17:33.433Z,96.90
2023-02-06T01:20:00.518Z,96.80
2023-02-06T01:22:27.650Z,97.30
2023-02-06T01:24:54.331Z,97.40
2023-02-06T01:27:21.119Z,97.70
2023-02-06T01:29:47.754Z,97.30
2023-02-06T01:32:14.477Z,97.40
2023-02-06T01:34:41.243Z,97.90
2023-02-06T01:37:08.653Z,98.30
2023-02-06T01:39:35.366Z,98.30
2023-02-06T01:42:02.300Z,97.40
2023-02-06T01:44:32.247Z,97.20
2023-02-06T01:46:59.082Z,97.70
2023-02-06T01:49:48.400Z,98.10
2023-02-06T01:52:21.420Z,98.10
2023-02-06T01:54:55.726Z,97.50
2023-02-06T01:57:23.973Z,97.20
2023-02-06T01:59:54.567Z,97.90
2023-02-06T02:02:25.173Z,98.00
2023-02-06T02:04:53.497Z,98.20
2023-02-06T02:07:24.657Z,98.30
2023-02-06T02:09:52.462Z,98.30
2023-02-06T02:12:19.616Z,98.30
2023-02-06T02:14:48.768Z,98.10
2023-02-06T02:17:49.691Z,98.10
2023-02-06T02:20:51.348Z,98.30
2023-02-06T02:23:17.973Z,98.30
2023-02-06T02:25:54.121Z,98.10
2023-02-06T02:28:29.504Z,98.10
2023-02-06T02:31:27.326Z,97.80
2023-02-06T02:34:12.826Z,98.10
2023-02-06T02:36:47.707Z,97.90
2023-02-06T02:39:19.588Z,97.80
2023-02-06T02:42:23.888Z,97.30
2023-02-06T02:45:04.267Z,97.40
2023-02-06T02:47:41.061Z,97.30
2023-02-06T02:50:08.172Z,97.90
2023-02-06T02:52:35.252Z,97.80
2023-02-06T02:55:01.974Z,97.80
2023-02-06T02:57:31.693Z,97.50
2023-02-06T03:00:01.147Z,97.70
2023-02-06T03:02:35.109Z,98.10
2023-02-06T03:05:11.992Z,97.90
2023-02-06T03:08:06.781Z,98.00
2023-02-06T03:10:46.257Z,98.30
2023-02-06T03:13:34.435Z,97.90
2023-02-06T03:16:22.967Z,98.10
2023-02-06T03:19:02.650Z,98.30
2023-02-06T03:21:30.221Z,98.10
2023-02-06T03:24:01.174Z,97.60
2023-02-06T03:26:30.399Z,97.60
2023-02-06T03:29:02.062Z,97.70
2023-02-06T03:31:44.023Z,98.10
2023-02-06T03:34:31.418Z,98.20
2023-02-06T03:36:58.253Z,97.80
2023-02-06T03:39:25.136Z,97.90
2023-02-06T03:41:53.932Z,98.30
2023-02-06T03:44:25.142Z,98.30
2023-02-06T03:46:54.326Z,98.10
2023-02-06T03:49:23.175Z,97.60
2023-02-06T03:51:57.506Z,97.50
2023-02-06T03:54:26.364Z,97.80
2023-02-06T03:56:56.410Z,97.90
2023-02-06T03:59:23.371Z,98.20
2023-02-06T04:01:53.449Z,97.60
2023-02-06T04:04:28.706Z,97.30
2023-02-06T04:07:12.843Z,97.30
2023-02-06T04:09:40.275Z,97.80
2023-02-06T04:12:07.428Z,98.30
2023-02-06T04:14:36.669Z,98.30
2023-02-06T04:17:06.891Z,98.10
2023-02-06T04:19:34.395Z,97.70
2023-02-06T04:22:01.422Z,98.10
2023-02-06T04:24:30.789Z,97.90
2023-02-06T04:26:57.794Z,97.80
2023-02-06T04:29:24.829Z,97.60
2023-02-06T04:31:51.634Z,98.10
2023-02-06T04:34:18.290Z,98.10
2023-02-06T04:36:45.008Z,98.30
2023-02-06T04:39:11.638Z,98.30
2023-02-06T04:41:38.271Z,98.30
2023-02-06T04:44:05.082Z,98.30
2023-02-06T04:46:31.840Z,98.30
2023-02-06T04:48:58.472Z,98.10
2023-02-06T04:51:25.116Z,97.80
2023-02-06T04:53:51.886Z,97.70
2023-02-06T04:56:18.948Z,97.80
2023-02-06T04:58:45.613Z,97.80
2023-02-06T05:01:12.413Z,97.80
2023-02-06T05:03:39.149Z,97.70
2023-02-06T05:06:06.052Z,98.00
2023-02-06T05:08:32.803Z,97.90
2023-02-06T05:10:59.508Z,98.00
2023-02-06T05:13:26.211Z,98.30
2023-02-06T05:15:53.306Z,97.70
2023-02-06T05:18:20.108Z,97.40
2023-02-06T05:20:46.799Z,97.30
2023-02-06T05:23:13.553Z,97.80
2023-02-06T05:25:42.203Z,98.30
2023-02-06T05:28:09.098Z,97.70
2023-02-06T05:30:36.123Z,97.60
2023-02-06T05:33:02.843Z,97.80
2023-02-06T05:35:29.642Z,97.70
2023-02-06T05:37:57.848Z,98.10
2023-02-06T05:40:24.705Z,98.00
2023-02-06T05:42:51.418Z,98.20
2023-02-06T05:45:18.175Z,97.60
2023-02-06T05:47:44.942Z,97.50
2023-02-06T05:50:11.770Z,98.10
2023-02-06T05:52:38.466Z,98.30
2023-02-06T05:55:05.404Z,97.90
2023-02-06T05:57:32.177Z,97.50
2023-02-06T05:59:58.839Z,97.70
2023-02-06T06:02:25.604Z,97.90
2023-02-06T06:04:52.335Z,97.50
2023-02-06T06:07:18.998Z,97.30
2023-02-06T06:09:45.807Z,97.70
2023-02-06T06:12:12.514Z,98.20
2023-02-06T06:14:43.540Z,98.30
2023-02-06T06:17:10.333Z,98.10
2023-02-06T06:19:37.097Z,97.90
2023-02-06T06:22:03.767Z,97.70
2023-02-06T06:24:30.431Z,97.70
2023-02-06T06:26:58.840Z,98.30
2023-02-06T06:29:26.064Z,98.00
2023-02-06T06:31:52.978Z,97.90
2023-02-06T06:34:19.875Z,98.10
2023-02-06T06:36:46.890Z,98.30
2023-02-06T06:39:14.279Z,98.30
2023-02-06T06:41:40.916Z,98.30
2023-02-06T06:44:07.906Z,98.30
2023-02-06T06:46:34.637Z,98.10
2023-02-06T06:49:01.881Z,97.90
2023-02-06T06:51:31.892Z,98.10
2023-02-06T06:53:58.763Z,98.30
2023-02-06T06:56:25.651Z,98.30
2023-02-06T06:58:52.788Z,98.30
2023-02-06T07:01:19.739Z,98.30
2023-02-06T07:03:48.305Z,98.30
2023-02-06T07:06:16.002Z,98.30
2023-02-06T07:08:43.447Z,98.10
2023-02-06T07:11:11.629Z,97.40
2023-02-06T07:13:38.879Z,97.70
2023-02-06T07:16:06.058Z,97.60
2023-02-06T07:18:32.833Z,97.80
2023-02-06T07:20:59.823Z,97.90
2023-02-06T07:23:26.841Z,98.20
2023-02-06T07:25:53.950Z,97.80
2023-02-06T07:28:20.646Z,98.30
2023-02-06T07:30:47.417Z,98.10
2023-02-06T07:33:14.189Z,97.80
2023-02-06T07:35:42.638Z,98.10
2023-02-06T07:38:09.269Z,97.80
2023-02-06T07:40:44.800Z,97.50
2023-02-06T07:43:13.363Z,97.40
2023-02-06T07:45:40.219Z,96.90
2023-02-06T07:48:07.292Z,96.80
2023-02-06T07:50:34.457Z,97.90
2023-02-06T07:53:01.200Z,98.30
2023-02-06T07:55:28.261Z,97.80
2023-02-06T07:57:55.313Z,97.80
2023-02-06T08:00:22.004Z,97.70
2023-02-06T08:02:48.771Z,97.60
2023-02-06T08:05:15.509Z,97.70
2023-02-06T08:07:42.212Z,97.80
2023-02-06T08:10:09.341Z,97.50
2023-02-06T08:12:36.016Z,96.90
2023-02-06T08:15:02.814Z,96.90
2023-02-06T08:17:29.460Z,97.80
2023-02-06T08:19:56.097Z,97.50
2023-02-06T08:22:22.754Z,97.50
2023-02-06T08:24:49.428Z,97.30
2023-02-06T08:27:16.087Z,96.50
2023-02-06T08:29:42.922Z,96.30
2023-02-06T08:32:10.790Z,95.10
2023-02-06T08:34:39.532Z,95.10
2023-02-06T08:37:06.586Z,95.80
2023-02-06T08:39:33.333Z,96.10
2023-02-06T08:42:00.045Z,96.00
2023-02-06T08:44:26.711Z,96.20
2023-02-06T08:47:04.720Z,96.30
2023-02-06T08:49:36.111Z,96.00
2023-02-06T08:52:02.860Z,95.80
2023-02-06T08:54:29.676Z,95.40
2023-02-06T08:56:58.305Z,95.30
2023-02-06T08:59:25.148Z,95.70
2023-02-06T09:01:54.236Z,95.50
2023-02-06T09:04:20.948Z,95.20
2023-02-06T09:06:49.068Z,95.00
2023-02-06T09:09:15.904Z,95.20
2023-02-06T09:11:42.953Z,94.50
2023-02-06T09:14:14.528Z,93.70
2023-02-06T09:16:41.218Z,93.90
2023-02-06T09:19:08.223Z,93.80
2023-02-06T09:21:35.864Z,93.30
2023-02-06T09:24:06.190Z,92.40
2023-02-06T09:26:53.533Z,92.40
2023-02-06T09:29:25.031Z,91.60
2023-02-06T09:31:51.801Z,91.20
2023-02-06T09:34:18.472Z,91.40
2023-02-06T09:36:45.831Z,91.00
2023-02-06T09:39:12.578Z,91.70
2023-02-06T09:41:48.978Z,90.10
2023-02-06T09:44:18.835Z,90.80
2023-02-06T09:47:09.241Z,91.60
2023-02-06T09:49:50.123Z,92.50
2023-02-06T09:52:38.401Z,92.40
2023-02-06T09:55:25.238Z,92.20
2023-02-06T09:57:58.076Z,90.90
2023-02-06T10:00:41.891Z,90.80
2023-02-06T10:03:36.443Z,90.10
2023-02-06T10:06:06.212Z,89.60
2023-02-06T10:09:01.027Z,90.60
2023-02-06T10:11:42.842Z,90.80
2023-02-06T10:14:44.365Z,90.40
2023-02-06T10:17:19.337Z,90.30
2023-02-06T10:19:58.142Z,89.80
2023-02-06T10:22:48.994Z,88.90
2023-02-06T10:25:38.852Z,88.60
2023-02-06T10:28:24.309Z,88.80
2023-02-06T10:31:13.587Z,88.10
2023-02-06T10:33:58.957Z,88.40
2023-02-06T10:36:50.009Z,89.00
2023-02-06T10:39:50.643Z,89.10
2023-02-06T10:42:43.755Z,88.30
2023-02-06T10:45:20.588Z,89.10
2023-02-06T10:47:55.009Z,88.10
2023-02-06T10:50:38.533Z,87.40
2023-02-06T10:53:31.886Z,88.10
2023-02-06T10:56:14.983Z,87.90
2023-02-06T10:58:48.312Z,88.00
2023-02-06T11:01:25.610Z,88.60
2023-02-06T11:04:17.926Z,88.70
2023-02-06T11:06:46.847Z,88.60
2023-02-06T11:09:14.555Z,88.60
2023-02-06T11:11:48.502Z,88.40
2023-02-06T11:14:25.216Z,87.80
2023-02-06T11:16:52.709Z,88.00
2023-02-06T11:19:30.849Z,88.10
2023-02-06T11:22:11.388Z,88.60
2023-02-06T11:24:39.497Z,88.10
2023-02-06T11:27:16.915Z,87.90
2023-02-06T11:29:49.357Z,88.50
2023-02-06T11:32:36.312Z,89.20
2023-02-06T11:35:22.048Z,89.30
2023-02-06T11:37:53.909Z,89.70
2023-02-06T11:40:20.484Z,90.50
2023-02-06T11:42:50.242Z,89.80
2023-02-06T11:45:28.690Z,89.30
2023-02-06T11:47:55.734Z,89.30
2023-02-06T11:50:41.190Z,89.00
2023-02-06T11:53:10.642Z,89.20
2023-02-06T11:55:39.599Z,89.30
2023-02-06T11:58:10.730Z,88.90
2023-02-06T12:00:40.290Z,89.10
2023-02-06T12:03:26.537Z,88.00
2023-02-06T12:05:55.295Z,87.50
2023-02-06T12:08:24.576Z,89.10
2023-02-06T12:11:02.614Z,88.00
2023-02-06T12:13:37.338Z,87.30
2023-02-06T12:16:08.045Z,87.20
2023-02-06T12:18:40.235Z,87.00
2023-02-06T12:21:38.082Z,86.60
2023-02-06T12:24:32.855Z,82.40
2023-02-06T12:27:05.332Z,82.20
2023-02-06T12:29:41.726Z,81.70
2023-02-06T12:32:16.103Z,81.60
2023-02-06T12:34:53.987Z,78.30
2023-02-06T12:37:42.337Z,72.90
2023-02-06T12:40:31.948Z,68.10
2023-02-06T12:43:14.260Z,66.00
2023-02-06T12:45:54.104Z,63.60
2023-02-06T12:48:35.436Z,64.20
2023-02-06T12:51:07.902Z,66.20
2023-02-06T12:53:53.656Z,68.30
2023-02-06T12:56:44.210Z,70.90
2023-02-06T12:59:19.856Z,73.10
2023-02-06T13:01:49.386Z,75.80
2023-02-06T13:04:25.651Z,78.50
2023-02-06T13:07:06.386Z,78.30
2023-02-06T13:10:00.477Z,78.90
2023-02-06T13:12:30.111Z,78.80
2023-02-06T13:15:07.456Z,79.30
2023-02-06T13:17:37.199Z,79.60
2023-02-06T13:20:10.065Z,80.40
2023-02-06T13:22:49.149Z,81.10
2023-02-06T13:25:24.947Z,80.90
2023-02-06T13:27:56.831Z,80.40
2023-02-06T13:30:29.645Z,81.10
2023-02-06T13:33:14.149Z,81.40
2023-02-06T13:35:57.346Z,81.20
2023-02-06T13:38:23.981Z,81.00
2023-02-06T13:41:12.477Z,80.60
2023-02-06T13:43:49.142Z,80.50
2023-02-06T13:46:19.368Z,80.60
2023-02-06T13:48:49.131Z,80.70
2023-02-06T13:51:34.721Z,81.00
2023-02-06T13:54:26.008Z,81.40
2023-02-06T13:57:25.134Z,82.40
2023-02-06T14:00:24.097Z,82.30
2023-02-06T14:03:25.482Z,82.00
2023-02-06T14:06:20.416Z,83.00
2023-02-06T14:09:10.983Z,82.50
2023-02-06T14:12:08.003Z,82.70
2023-02-06T14:14:57.536Z,83.10
2023-02-06T14:17:56.920Z,83.70
2023-02-06T14:20:59.209Z,82.70
2023-02-06T14:23:45.676Z,83.20
2023-02-06T14:26:21.697Z,82.90
2023-02-06T14:29:11.837Z,82.90
2023-02-06T14:32:09.685Z,82.00
2023-02-06T14:34:43.556Z,81.50
2023-02-06T14:37:28.425Z,80.80
2023-02-06T14:40:04.549Z,80.80
2023-02-06T14:42:31.304Z,81.30
2023-02-06T14:45:08.582Z,81.00
2023-02-06T14:47:42.361Z,81.10
2023-02-06T14:50:19.428Z,81.50
2023-02-06T14:52:51.399Z,81.30
2023-02-06T14:55:38.617Z,81.00
2023-02-06T14:58:18.793Z,81.70
2023-02-06T15:00:45.810Z,80.90
2023-02-06T15:03:20.440Z,81.00
2023-02-06T15:05:47.363Z,81.00
2023-02-06T15:08:19.565Z,81.20
2023-02-06T15:10:47.269Z,81.00
2023-02-06T15:13:25.116Z,80.80
2023-02-06T15:15:57.369Z,80.90
2023-02-06T15:18:24.617Z,81.30
2023-02-06T15:21:01.121Z,81.90
2023-02-06T15:23:57.087Z,82.10
2023-02-06T15:27:02.383Z,82.10
2023-02-06T15:29:29.577Z,82.00
2023-02-06T15:32:04.967Z,81.90
2023-02-06T15:34:35.425Z,82.20
2023-02-06T15:37:20.980Z,82.10
2023-02-06T15:39:49.363Z,82.10
2023-02-06T15:42:21.245Z,82.50
2023-02-06T15:44:51.648Z,82.20
2023-02-06T15:47:21.630Z,82.30
2023-02-06T15:49:50.601Z,82.60
2023-02-06T15:52:41.580Z,82.30
2023-02-06T15:55:22.763Z,82.70
2023-02-06T15:57:50.038Z,82.50
2023-02-06T16:00:33.404Z,82.60
2023-02-06T16:03:18.616Z,82.90
2023-02-06T16:05:45.262Z,82.80
2023-02-06T16:08:34.083Z,82.60
2023-02-06T16:11:04.804Z,83.00
2023-02-06T16:13:32.842Z,83.50
2023-02-06T16:16:11.866Z,83.20
2023-02-06T16:18:40.151Z,83.30
2023-02-06T16:21:18.897Z,83.70
2023-02-06T16:23:47.053Z,83.40
2023-02-06T16:26:23.056Z,83.30
2023-02-06T16:29:09.405Z,83.70
2023-02-06T16:31:42.818Z,84.20
2023-02-06T16:34:36.645Z,84.70
2023-02-06T16:37:10.766Z,85.60
2023-02-06T16:39:42.361Z,86.20
2023-02-06T16:42:27.037Z,87.40
2023-02-06T16:44:59.178Z,88.80
2023-02-06T16:47:26.392Z,89.60
2023-02-06T16:49:53.107Z,89.90
2023-02-06T16:52:30.120Z,90.70
2023-02-06T16:54:58.989Z,91.80
2023-02-06T16:57:43.210Z,91.30
2023-02-06T17:00:21.682Z,91.30
2023-02-06T17:02:49.372Z,91.90
2023-02-06T17:05:18.005Z,92.30
2023-02-06T17:07:45.102Z,93.10
2023-02-06T17:10:13.265Z,93.10
2023-02-06T17:12:40.097Z,93.40
2023-02-06T17:15:07.187Z,93.40
2023-02-06T17:17:33.867Z,93.50
2023-02-06T17:20:00.931Z,93.80
2023-02-06T17:22:27.765Z,94.40
2023-02-06T17:24:54.543Z,94.50
2023-02-06T17:27:22.546Z,94.90
2023-02-06T17:29:50.506Z,94.20
2023-02-06T17:32:22.354Z,94.20
2023-02-06T17:34:51.012Z,94.40
2023-02-06T17:37:20.854Z,94.80
2023-02-06T17:39:50.086Z,95.70
2023-02-06T17:42:16.962Z,95.90
2023-02-06T17:44:44.222Z,95.90
2023-02-06T17:47:11.054Z,95.70
2023-02-06T17:49:37.797Z,95.80
2023-02-06T17:52:04.770Z,96.10
2023-02-06T17:54:31.524Z,96.40
2023-02-06T17:56:58.169Z,96.80
2023-02-06T17:59:25.235Z,96.70
2023-02-06T18:01:52.078Z,96.00
2023-02-06T18:04:21.229Z,96.70
2023-02-06T18:06:48.501Z,96.50
2023-02-06T18:09:15.262Z,96.50
2023-02-06T18:11:41.925Z,96.40
2023-02-06T18:14:08.970Z,96.40
2023-02-06T18:16:36.302Z,96.90
2023-02-06T18:19:03.476Z,97.30
2023-02-06T18:21:31.388Z,97.20
2023-02-06T18:23:58.280Z,97.00
2023-02-06T18:26:25.235Z,97.20
2023-02-06T18:28:51.959Z,96.90
2023-02-06T18:31:28.937Z,94.40
2023-02-06T18:33:56.983Z,93.80
2023-02-06T18:36:24.374Z,92.90
2023-02-06T18:38:51.108Z,92.90
2023-02-06T18:41:36.843Z,92.80
2023-02-06T18:44:06.469Z,92.30
2023-02-06T18:46:33.778Z,92.20
2023-02-06T18:49:00.878Z,92.60
2023-02-06T18:51:29.064Z,92.40
2023-02-06T18:53:56.420Z,92.40
2023-02-06T18:56:23.371Z,91.90
2023-02-06T18:58:50.177Z,92.10
2023-02-06T19:01:22.391Z,91.20
2023-02-06T19:03:50.881Z,91.20
2023-02-06T19:06:24.049Z,91.60
2023-02-06T19:08:50.745Z,92.00
2023-02-06T19:11:17.751Z,91.90
2023-02-06T19:13:44.498Z,91.90
2023-02-06T19:16:14.900Z,92.90
2023-02-06T19:18:45.664Z,93.10
2023-02-06T19:21:17.654Z,92.50
2023-02-06T19:23:45.952Z,93.20
2023-02-06T19:26:16.897Z,93.70
2023-02-06T19:28:44.318Z,94.00
2023-02-06T19:31:11.997Z,94.80
2023-02-06T19:33:40.194Z,94.30
2023-02-06T19:36:12.598Z,94.60
2023-02-06T19:38:39.924Z,94.80
2023-02-06T19:41:11.486Z,94.20
2023-02-06T19:43:38.980Z,93.80
2023-02-06T19:46:12.358Z,94.70
2023-02-06T19:48:43.783Z,94.20
2023-02-06T19:51:13.569Z,94.00
2023-02-06T19:53:45.254Z,94.40
2023-02-06T19:56:20.786Z,94.20
2023-02-06T19:58:52.511Z,94.00
2023-02-06T20:01:19.275Z,94.80
2023-02-06T20:03:46.473Z,95.00
2023-02-06T20:06:14.429Z,94.40
2023-02-06T20:08:43.209Z,93.90
2023-02-06T20:11:16.140Z,94.00
2023-02-06T20:13:44.276Z,93.50
2023-02-06T20:16:19.681Z,93.00
2023-02-06T20:18:46.496Z,93.30
2023-02-06T20:21:31.382Z,93.10
2023-02-06T20:24:00.912Z,94.00
2023-02-06T20:26:32.981Z,94.70
2023-02-06T20:29:00.734Z,94.40
2023-02-06T20:31:28.159Z,94.90
2023-02-06T20:33:55.651Z,94.70
2023-02-06T20:36:25.456Z,94.60
2023-02-06T20:38:57.279Z,94.30
2023-02-06T20:41:30.915Z,93.80
2023-02-06T20:43:59.578Z,93.50
2023-02-06T20:46:29.572Z,93.30
2023-02-06T20:49:02.206Z,93.40
2023-02-06T20:51:29.743Z,93.30
2023-02-06T20:53:56.502Z,92.90
2023-02-06T20:56:23.592Z,93.00
2023-02-06T20:58:51.395Z,92.90
2023-02-06T21:01:23.787Z,92.90
2023-02-06T21:03:53.855Z,93.10
2023-02-06T21:06:20.995Z,93.20
2023-02-06T21:08:50.347Z,93.20
2023-02-06T21:11:17.658Z,93.30
2023-02-06T21:13:44.431Z,93.00
2023-02-06T21:16:13.518Z,93.00
2023-02-06T21:18:42.474Z,93.10
2023-02-06T21:21:12.059Z,93.00
2023-02-06T21:23:40.525Z,93.00
2023-02-06T21:26:08.660Z,93.20
2023-02-06T21:28:36.404Z,93.20
2023-02-06T21:31:09.360Z,93.50
2023-02-06T21:33:36.870Z,93.40
2023-02-06T21:36:06.685Z,93.20
2023-02-06T21:38:36.416Z,92.90
2023-02-06T21:41:06.799Z,93.50
2023-02-06T21:43:33.809Z,93.40
2023-02-06T21:46:01.038Z,93.50
2023-02-06T21:48:27.906Z,93.50
2023-02-06T21:50:54.887Z,93.50
2023-02-06T21:53:21.742Z,93.70
2023-02-06T21:55:48.520Z,93.70
2023-02-06T21:58:15.895Z,94.20
2023-02-06T22:00:44.894Z,94.00
2023-02-06T22:03:12.673Z,94.20
2023-02-06T22:05:39.679Z,94.80
2023-02-06T22:08:06.678Z,95.30
2023-02-06T22:10:36.778Z,95.50
2023-02-06T22:13:05.860Z,95.60
2023-02-06T22:15:33.667Z,95.50
2023-02-06T22:18:00.630Z,95.40
2023-02-06T22:20:27.569Z,95.30
2023-02-06T22:22:55.158Z,95.60
2023-02-06T22:25:22.281Z,95.70
2023-02-06T22:27:48.971Z,95.70
2023-02-06T22:30:15.784Z,95.60
2023-02-06T22:32:42.465Z,95.50
2023-02-06T22:35:09.188Z,96.00
2023-02-06T22:37:36.062Z,96.30
2023-02-06T22:40:03.857Z,96.20
2023-02-06T22:42:30.902Z,96.20
2023-02-06T22:44:57.644Z,96.00
2023-02-06T22:47:24.295Z,96.30
2023-02-06T22:49:52.530Z,96.30
2023-02-06T22:52:37.698Z,96.00
2023-02-06T22:55:05.746Z,95.50
2023-02-06T22:57:35.141Z,95.40
2023-02-06T23:00:01.896Z,95.30
2023-02-06T23:02:28.627Z,95.00
2023-02-06T23:04:55.335Z,94.80
2023-02-06T23:07:22.003Z,94.70
2023-02-06T23:09:48.669Z,94.90
2023-02-06T23:12:16.174Z,94.90
2023-02-06T23:14:43.476Z,94.70
2023-02-06T23:17:10.695Z,94.70
2023-02-06T23:19:39.226Z,94.70
2023-02-06T23:22:06.213Z,94.60
2023-02-06T23:24:32.907Z,94.50
2023-02-06T23:26:59.860Z,94.50
2023-02-06T23:29:26.646Z,94.70
2023-02-06T23:31:53.767Z,95.10
2023-02-06T23:34:23.500Z,95.20
2023-02-06T23:36:51.763Z,94.80
2023-02-06T23:39:18.585Z,94.60
2023-02-06T23:41:45.256Z,94.40
2023-02-06T23:44:12.061Z,94.70
2023-02-06T23:46:39.732Z,94.70
2023-02-06T23:49:07.087Z,94.70
2023-02-06T23:51:35.049Z,94.70
2023-02-06T23:54:02.184Z,94.80
2023-02-06T23:56:31.346Z,95.10
2023-02-06T23:58:59.300Z,95.50
